GAP2238 RPVM-RPVA
Flight info
| Callsign | GAP2238 |
|---|---|
| Flight time | 0h 23m |
| Altitude | 15000 |
| Route | POXOS4P POXOS POXOS2R |
| Aircraft | DH8D/M-SDE2E3FGRY/H |
Departure
| Time | 2026-04-27 13:03 |
|---|---|
| Airport | Mactan Cebu International Airport (RPVM) |
Arrival
| Time | 2026-04-27 13:26 |
|---|---|
| Airport | Daniel Z. Romualdez Airport (RPVA) |
| Time | Latitude | Longitude | Altitude | Speed | Heading |
|---|---|---|---|---|---|
| 2026-04-27 12:48 | 10.31765 | 123.98259 | 38 ft | 0 kts | 44° |
| 2026-04-27 12:51 | 10.31766 | 123.98260 | 38 ft | 0 kts | 44° |
| 2026-04-27 12:52 | 10.31757 | 123.98251 | 38 ft | 2 kts | 52° |
| 2026-04-27 12:52 | 10.31751 | 123.98237 | 38 ft | 2 kts | 82° |
| 2026-04-27 12:52 | 10.31752 | 123.98222 | 38 ft | 2 kts | 109° |
| 2026-04-27 12:53 | 10.31752 | 123.98215 | 38 ft | 3 kts | 156° |
| 2026-04-27 12:53 | 10.31731 | 123.98213 | 38 ft | 3 kts | 208° |
| 2026-04-27 12:53 | 10.31708 | 123.98190 | 38 ft | 5 kts | 224° |
| 2026-04-27 12:54 | 10.31692 | 123.98174 | 38 ft | 0 kts | 225° |
| 2026-04-27 12:54 | 10.31691 | 123.98174 | 38 ft | 0 kts | 225° |
| 2026-04-27 12:56 | 10.31689 | 123.98171 | 38 ft | 1 kts | 225° |
| 2026-04-27 12:56 | 10.31668 | 123.98150 | 38 ft | 5 kts | 226° |
| 2026-04-27 12:56 | 10.31633 | 123.98122 | 38 ft | 7 kts | 202° |
| 2026-04-27 12:56 | 10.31581 | 123.98132 | 38 ft | 8 kts | 142° |
| 2026-04-27 12:57 | 10.31538 | 123.98175 | 38 ft | 8 kts | 134° |
| 2026-04-27 12:57 | 10.31496 | 123.98219 | 38 ft | 8 kts | 134° |
| 2026-04-27 12:57 | 10.31442 | 123.98221 | 38 ft | 9 kts | 221° |
| 2026-04-27 12:57 | 10.31391 | 123.98171 | 38 ft | 10 kts | 225° |
| 2026-04-27 12:58 | 10.31336 | 123.98115 | 38 ft | 12 kts | 225° |
| 2026-04-27 12:58 | 10.31264 | 123.98043 | 38 ft | 16 kts | 225° |
| 2026-04-27 12:58 | 10.31180 | 123.97958 | 38 ft | 17 kts | 225° |
| 2026-04-27 12:58 | 10.31097 | 123.97875 | 38 ft | 16 kts | 225° |
| 2026-04-27 12:59 | 10.31017 | 123.97794 | 38 ft | 16 kts | 225° |
| 2026-04-27 12:59 | 10.30929 | 123.97704 | 38 ft | 19 kts | 225° |
| 2026-04-27 12:59 | 10.30836 | 123.97611 | 38 ft | 18 kts | 225° |
| 2026-04-27 12:59 | 10.30747 | 123.97522 | 38 ft | 17 kts | 225° |
| 2026-04-27 13:00 | 10.30660 | 123.97435 | 38 ft | 17 kts | 224° |
| 2026-04-27 13:00 | 10.30570 | 123.97345 | 38 ft | 18 kts | 225° |
| 2026-04-27 13:00 | 10.30475 | 123.97250 | 38 ft | 18 kts | 224° |
| 2026-04-27 13:00 | 10.30402 | 123.97178 | 38 ft | 10 kts | 225° |
| 2026-04-27 13:01 | 10.30343 | 123.97167 | 38 ft | 8 kts | 143° |
| 2026-04-27 13:01 | 10.30296 | 123.97216 | 38 ft | 10 kts | 135° |
| 2026-04-27 13:01 | 10.30236 | 123.97276 | 38 ft | 13 kts | 135° |
| 2026-04-27 13:01 | 10.30175 | 123.97330 | 38 ft | 5 kts | 149° |
| 2026-04-27 13:02 | 10.30161 | 123.97345 | 38 ft | 2 kts | 76° |
| 2026-04-27 13:02 | 10.30170 | 123.97356 | 38 ft | 3 kts | 43° |
| 2026-04-27 13:02 | 10.30232 | 123.97417 | 38 ft | 32 kts | 45° |
| 2026-04-27 13:02 | 10.30623 | 123.97810 | 38 ft | 118 kts | 44° |
| 2026-04-27 13:03 | 10.31315 | 123.98515 | 202 ft | 151 kts | 44° |
| 2026-04-27 13:03 | 10.32072 | 123.99302 | 698 ft | 164 kts | 45° |
| 2026-04-27 13:03 | 10.32892 | 124.00140 | 1307 ft | 172 kts | 45° |
| 2026-04-27 13:03 | 10.33746 | 124.01006 | 1950 ft | 176 kts | 45° |
| 2026-04-27 13:04 | 10.34623 | 124.01920 | 2435 ft | 184 kts | 47° |
| 2026-04-27 13:04 | 10.35486 | 124.02891 | 2946 ft | 188 kts | 49° |
| 2026-04-27 13:04 | 10.36355 | 124.03879 | 3505 ft | 188 kts | 49° |
| 2026-04-27 13:04 | 10.37226 | 124.04866 | 4014 ft | 189 kts | 49° |
| 2026-04-27 13:05 | 10.38117 | 124.05878 | 4535 ft | 191 kts | 49° |
| 2026-04-27 13:05 | 10.39001 | 124.06882 | 5016 ft | 194 kts | 49° |
| 2026-04-27 13:05 | 10.39908 | 124.07912 | 5511 ft | 196 kts | 49° |
| 2026-04-27 13:05 | 10.40809 | 124.08935 | 6004 ft | 197 kts | 49° |
| 2026-04-27 13:06 | 10.41724 | 124.09974 | 6500 ft | 198 kts | 49° |
| 2026-04-27 13:06 | 10.42649 | 124.11025 | 6949 ft | 199 kts | 49° |
| 2026-04-27 13:06 | 10.43568 | 124.12069 | 7382 ft | 201 kts | 49° |
| 2026-04-27 13:06 | 10.44512 | 124.13141 | 7818 ft | 205 kts | 49° |
| 2026-04-27 13:07 | 10.45447 | 124.14204 | 8327 ft | 204 kts | 49° |
| 2026-04-27 13:07 | 10.46399 | 124.15286 | 8751 ft | 207 kts | 49° |
| 2026-04-27 13:07 | 10.47372 | 124.16391 | 9211 ft | 208 kts | 49° |
| 2026-04-27 13:07 | 10.48327 | 124.17477 | 9657 ft | 209 kts | 49° |
| 2026-04-27 13:08 | 10.49303 | 124.18586 | 10054 ft | 213 kts | 49° |
| 2026-04-27 13:08 | 10.50295 | 124.19714 | 10499 ft | 214 kts | 49° |
| 2026-04-27 13:08 | 10.51282 | 124.20836 | 10916 ft | 214 kts | 49° |
| 2026-04-27 13:08 | 10.52288 | 124.21980 | 11288 ft | 217 kts | 49° |
| 2026-04-27 13:09 | 10.53291 | 124.23119 | 11702 ft | 218 kts | 49° |
| 2026-04-27 13:09 | 10.54298 | 124.24265 | 12091 ft | 219 kts | 48° |
| 2026-04-27 13:09 | 10.55335 | 124.25444 | 12446 ft | 222 kts | 48° |
| 2026-04-27 13:09 | 10.56350 | 124.26599 | 12840 ft | 222 kts | 48° |
| 2026-04-27 13:10 | 10.57384 | 124.27776 | 13195 ft | 224 kts | 48° |
| 2026-04-27 13:10 | 10.58429 | 124.28965 | 13546 ft | 226 kts | 48° |
| 2026-04-27 13:10 | 10.59485 | 124.30167 | 13881 ft | 228 kts | 48° |
| 2026-04-27 13:10 | 10.60545 | 124.31374 | 14204 ft | 231 kts | 48° |
| 2026-04-27 13:11 | 10.61610 | 124.32585 | 14572 ft | 230 kts | 47° |
| 2026-04-27 13:11 | 10.62696 | 124.33821 | 14744 ft | 240 kts | 47° |
| 2026-04-27 13:11 | 10.63838 | 124.35120 | 14815 ft | 254 kts | 47° |
| 2026-04-27 13:11 | 10.65048 | 124.36495 | 14841 ft | 269 kts | 47° |
| 2026-04-27 13:12 | 10.66337 | 124.37960 | 14843 ft | 283 kts | 47° |
| 2026-04-27 13:12 | 10.67683 | 124.39489 | 14839 ft | 295 kts | 48° |
| 2026-04-27 13:12 | 10.69104 | 124.41104 | 14855 ft | 316 kts | 48° |
| 2026-04-27 13:12 | 10.70606 | 124.42812 | 14853 ft | 335 kts | 47° |
| 2026-04-27 13:13 | 10.72190 | 124.44615 | 14838 ft | 340 kts | 47° |
| 2026-04-27 13:13 | 10.73761 | 124.46401 | 14841 ft | 340 kts | 48° |
| 2026-04-27 13:13 | 10.75341 | 124.48199 | 14842 ft | 340 kts | 48° |
| 2026-04-27 13:13 | 10.76923 | 124.50000 | 14853 ft | 341 kts | 48° |
| 2026-04-27 13:14 | 10.78496 | 124.51791 | 14844 ft | 343 kts | 47° |
| 2026-04-27 13:14 | 10.80110 | 124.53631 | 14854 ft | 346 kts | 47° |
| 2026-04-27 13:14 | 10.81697 | 124.55441 | 14847 ft | 348 kts | 48° |
| 2026-04-27 13:14 | 10.83308 | 124.57279 | 14702 ft | 347 kts | 47° |
| 2026-04-27 13:15 | 10.84919 | 124.59114 | 14305 ft | 345 kts | 47° |
| 2026-04-27 13:15 | 10.86475 | 124.60947 | 13783 ft | 346 kts | 52° |
| 2026-04-27 13:15 | 10.87449 | 124.63168 | 13386 ft | 339 kts | 76° |
| 2026-04-27 13:15 | 10.87832 | 124.65510 | 12953 ft | 341 kts | 80° |
| 2026-04-27 13:16 | 10.88177 | 124.67883 | 12490 ft | 336 kts | 81° |
| 2026-04-27 13:16 | 10.88507 | 124.70204 | 12024 ft | 327 kts | 81° |
| 2026-04-27 13:16 | 10.88827 | 124.72455 | 11571 ft | 319 kts | 81° |
| 2026-04-27 13:16 | 10.89141 | 124.74644 | 11110 ft | 306 kts | 81° |
| 2026-04-27 13:17 | 10.89442 | 124.76745 | 10680 ft | 294 kts | 81° |
| 2026-04-27 13:17 | 10.89727 | 124.78740 | 10273 ft | 283 kts | 81° |
| 2026-04-27 13:17 | 10.90004 | 124.80682 | 9867 ft | 273 kts | 81° |
| 2026-04-27 13:17 | 10.90274 | 124.82579 | 9474 ft | 269 kts | 81° |
| 2026-04-27 13:18 | 10.90537 | 124.84441 | 9094 ft | 268 kts | 81° |
| 2026-04-27 13:18 | 10.90803 | 124.86317 | 8711 ft | 267 kts | 81° |
| 2026-04-27 13:18 | 10.91067 | 124.88171 | 8326 ft | 266 kts | 81° |
| 2026-04-27 13:18 | 10.91333 | 124.90031 | 7936 ft | 264 kts | 81° |
| 2026-04-27 13:19 | 10.91596 | 124.91872 | 7548 ft | 260 kts | 81° |
| 2026-04-27 13:19 | 10.91853 | 124.93656 | 7176 ft | 251 kts | 81° |
| 2026-04-27 13:19 | 10.92101 | 124.95387 | 6821 ft | 246 kts | 81° |
| 2026-04-27 13:19 | 10.92345 | 124.97103 | 6465 ft | 243 kts | 81° |
| 2026-04-27 13:20 | 10.92618 | 124.98791 | 6019 ft | 246 kts | 76° |
| 2026-04-27 13:20 | 10.93537 | 125.00236 | 5538 ft | 247 kts | 38° |
| 2026-04-27 13:20 | 10.95147 | 125.00838 | 5223 ft | 253 kts | 11° |
| 2026-04-27 13:20 | 10.96914 | 125.01002 | 4859 ft | 254 kts | 6° |
| 2026-04-27 13:21 | 10.98650 | 125.01122 | 4497 ft | 246 kts | 6° |
| 2026-04-27 13:21 | 11.00356 | 125.01230 | 4143 ft | 237 kts | 6° |
| 2026-04-27 13:21 | 11.01959 | 125.01334 | 3812 ft | 229 kts | 6° |
| 2026-04-27 13:21 | 11.03542 | 125.01437 | 3488 ft | 220 kts | 6° |
| 2026-04-27 13:22 | 11.05024 | 125.01534 | 3208 ft | 210 kts | 7° |
| 2026-04-27 13:22 | 11.06452 | 125.01628 | 2934 ft | 201 kts | 7° |
| 2026-04-27 13:22 | 11.07857 | 125.01726 | 2674 ft | 200 kts | 7° |
| 2026-04-27 13:22 | 11.09240 | 125.01820 | 2412 ft | 194 kts | 7° |
| 2026-04-27 13:23 | 11.10511 | 125.01899 | 2174 ft | 171 kts | 7° |
| 2026-04-27 13:23 | 11.11629 | 125.01970 | 1966 ft | 150 kts | 9° |
| 2026-04-27 13:23 | 11.12603 | 125.02034 | 1788 ft | 132 kts | 11° |
| 2026-04-27 13:23 | 11.13516 | 125.02111 | 1616 ft | 132 kts | 11° |
| 2026-04-27 13:24 | 11.14440 | 125.02190 | 1445 ft | 133 kts | 11° |
| 2026-04-27 13:24 | 11.15374 | 125.02265 | 1266 ft | 135 kts | 10° |
| 2026-04-27 13:24 | 11.16323 | 125.02336 | 1083 ft | 134 kts | 9° |
| 2026-04-27 13:24 | 11.17257 | 125.02404 | 911 ft | 135 kts | 9° |
| 2026-04-27 13:25 | 11.18200 | 125.02473 | 734 ft | 138 kts | 9° |
| 2026-04-27 13:25 | 11.19178 | 125.02539 | 564 ft | 139 kts | 8° |
| 2026-04-27 13:25 | 11.20138 | 125.02594 | 365 ft | 137 kts | 6° |
| 2026-04-27 13:25 | 11.21077 | 125.02655 | 188 ft | 133 kts | 9° |
| 2026-04-27 13:26 | 11.21997 | 125.02722 | 32 ft | 131 kts | 8° |
| 2026-04-27 13:26 | 11.22758 | 125.02776 | 22 ft | 80 kts | 4° |
| 2026-04-27 13:26 | 11.23167 | 125.02802 | 21 ft | 44 kts | 4° |
| 2026-04-27 13:26 | 11.23434 | 125.02820 | 21 ft | 33 kts | 4° |
| 2026-04-27 13:27 | 11.23605 | 125.02831 | 20 ft | 17 kts | 358° |
| 2026-04-27 13:27 | 11.23693 | 125.02810 | 20 ft | 5 kts | 9° |
| 2026-04-27 13:27 | 11.23700 | 125.02831 | 20 ft | 3 kts | 133° |
| 2026-04-27 13:27 | 11.23653 | 125.02834 | 20 ft | 11 kts | 185° |
| 2026-04-27 13:28 | 11.23550 | 125.02827 | 20 ft | 17 kts | 184° |
| 2026-04-27 13:28 | 11.23408 | 125.02819 | 21 ft | 22 kts | 184° |
| 2026-04-27 13:28 | 11.23237 | 125.02807 | 21 ft | 26 kts | 184° |
| 2026-04-27 13:28 | 11.23066 | 125.02795 | 21 ft | 22 kts | 184° |
| 2026-04-27 13:29 | 11.22920 | 125.02786 | 22 ft | 21 kts | 184° |
| 2026-04-27 13:29 | 11.22768 | 125.02776 | 22 ft | 22 kts | 184° |
| 2026-04-27 13:29 | 11.22620 | 125.02766 | 22 ft | 16 kts | 184° |
| 2026-04-27 13:29 | 11.22562 | 125.02754 | 22 ft | 4 kts | 240° |
| 2026-04-27 13:30 | 11.22572 | 125.02710 | 22 ft | 8 kts | 309° |
| 2026-04-27 13:30 | 11.22610 | 125.02673 | 22 ft | 6 kts | 316° |
| 2026-04-27 13:30 | 11.22632 | 125.02651 | 22 ft | 0 kts | 317° |
| 2026-04-27 13:30 | 11.22635 | 125.02649 | 22 ft | 0 kts | 317° |